createdAt,value
2023-03-06T00:02:39.824Z,94.11
2023-03-06T00:07:43.300Z,94.38
2023-03-06T00:12:46.090Z,94.84
2023-03-06T00:17:48.850Z,95.16
2023-03-06T00:22:51.668Z,95.19
2023-03-06T00:27:54.638Z,95.48
2023-03-06T00:32:57.493Z,95.34
2023-03-06T00:38:00.629Z,95.27
2023-03-06T00:43:03.461Z,95.34
2023-03-06T00:48:06.565Z,95.59
2023-03-06T00:53:11.144Z,95.93
2023-03-06T00:58:14.323Z,95.90
2023-03-06T01:03:17.138Z,96.09
2023-03-06T01:08:19.864Z,96.12
2023-03-06T01:13:22.690Z,96.17
2023-03-06T01:18:25.423Z,96.25
2023-03-06T01:23:28.427Z,96.65
2023-03-06T01:28:31.582Z,96.52
2023-03-06T01:33:35.035Z,96.46
2023-03-06T01:38:37.964Z,96.37
2023-03-06T01:43:44.348Z,96.54
2023-03-06T01:48:48.852Z,96.41
2023-03-06T01:53:53.622Z,96.63
2023-03-06T01:58:59.295Z,96.61
2023-03-06T02:04:02.323Z,96.38
2023-03-06T02:09:06.841Z,96.65
2023-03-06T02:14:13.230Z,96.85
2023-03-06T02:19:47.005Z,96.92
2023-03-06T02:25:08.288Z,96.98
2023-03-06T02:30:15.310Z,97.36
2023-03-06T02:35:23.020Z,97.71
2023-03-06T02:40:26.407Z,97.73
2023-03-06T02:45:45.441Z,97.73
2023-03-06T02:50:49.123Z,97.79
2023-03-06T02:55:52.322Z,98.03
2023-03-06T03:00:55.092Z,98.19
2023-03-06T03:05:57.862Z,98.08
2023-03-06T03:11:01.564Z,98.55
2023-03-06T03:16:06.919Z,98.79
2023-03-06T03:21:11.763Z,98.42
2023-03-06T03:26:18.740Z,98.52
2023-03-06T03:31:21.731Z,98.29
2023-03-06T03:36:26.146Z,98.17
2023-03-06T03:41:28.982Z,98.29
2023-03-06T03:46:31.725Z,98.40
2023-03-06T03:51:34.544Z,98.40
2023-03-06T03:56:37.857Z,98.45
2023-03-06T04:01:40.669Z,98.27
2023-03-06T04:06:43.557Z,98.48
2023-03-06T04:11:46.234Z,98.59
2023-03-06T04:16:48.985Z,98.57
2023-03-06T04:21:51.758Z,98.51
2023-03-06T04:26:54.485Z,98.43
2023-03-06T04:31:57.258Z,98.44
2023-03-06T04:36:59.957Z,98.60
2023-03-06T04:42:02.718Z,98.55
2023-03-06T04:47:06.082Z,98.58
2023-03-06T04:52:09.184Z,98.85
2023-03-06T04:57:13.715Z,98.88
2023-03-06T05:02:17.716Z,99.19
2023-03-06T05:07:20.542Z,99.24
2023-03-06T05:12:23.749Z,98.97
2023-03-06T05:17:26.773Z,98.85
2023-03-06T05:22:29.469Z,98.91
2023-03-06T05:27:32.686Z,98.87
2023-03-06T05:32:36.015Z,98.88
2023-03-06T05:37:39.003Z,97.73
2023-03-06T05:42:42.309Z,95.84
2023-03-06T05:47:45.104Z,92.45
2023-03-06T05:52:47.867Z,88.95
2023-03-06T05:57:51.837Z,85.44
2023-03-06T06:02:54.661Z,82.13
2023-03-06T06:07:57.358Z,78.50
2023-03-06T06:13:00.456Z,73.94
2023-03-06T06:18:03.208Z,70.82
2023-03-06T06:23:05.980Z,68.07
2023-03-06T06:28:08.739Z,67.06
2023-03-06T06:33:11.431Z,61.68
2023-03-06T06:38:14.506Z,58.53
2023-03-06T06:43:17.267Z,55.10
2023-03-06T06:48:20.054Z,52.41
2023-03-06T06:53:23.203Z,50.49
2023-03-06T06:58:26.802Z,47.14
2023-03-06T07:03:29.611Z,45.44
2023-03-06T07:08:33.087Z,43.50
2023-03-06T07:13:36.548Z,41.45
2023-03-06T07:18:39.659Z,39.07
2023-03-06T07:23:42.476Z,37.71
2023-03-06T07:28:52.434Z,35.16
2023-03-06T07:33:56.243Z,34.05
2023-03-06T07:38:59.049Z,33.37
2023-03-06T07:44:02.397Z,32.47
2023-03-06T07:49:05.277Z,31.05
2023-03-06T07:54:08.041Z,29.91
2023-03-06T07:59:11.783Z,28.74
2023-03-06T08:04:14.533Z,28.13
2023-03-06T08:09:17.380Z,26.88
2023-03-06T08:14:20.109Z,26.58
2023-03-06T08:19:22.940Z,25.16
2023-03-06T08:24:26.605Z,24.34
2023-03-06T08:29:31.032Z,24.09
2023-03-06T08:34:34.987Z,23.50
2023-03-06T08:39:37.756Z,22.12
2023-03-06T08:44:40.493Z,21.54
2023-03-06T08:49:43.407Z,21.45
2023-03-06T08:54:46.774Z,20.91
2023-03-06T08:59:49.508Z,20.69
2023-03-06T09:04:52.308Z,20.55
2023-03-06T09:09:58.270Z,20.48
2023-03-06T09:15:03.850Z,19.20
2023-03-06T09:20:10.485Z,18.96
2023-03-06T09:25:18.281Z,18.68
2023-03-06T09:30:21.166Z,17.73
2023-03-06T09:35:23.964Z,17.28
2023-03-06T09:40:45.923Z,16.91
2023-03-06T09:45:48.699Z,16.87
2023-03-06T09:50:58.837Z,19.02
2023-03-06T09:56:24.517Z,18.88
2023-03-06T10:01:33.120Z,19.17
2023-03-06T10:06:55.925Z,17.14
2023-03-06T10:12:06.832Z,17.07
2023-03-06T10:17:18.030Z,16.84
2023-03-06T10:22:26.401Z,15.59
2023-03-06T10:27:49.106Z,15.80
2023-03-06T10:32:59.335Z,15.82
2023-03-06T10:38:21.102Z,14.80
2023-03-06T10:43:23.930Z,13.67
2023-03-06T10:48:29.668Z,12.92
2023-03-06T10:53:33.116Z,13.36
2023-03-06T10:58:35.952Z,12.66
2023-03-06T11:03:38.703Z,12.42
2023-03-06T11:08:44.646Z,11.67
2023-03-06T11:13:57.569Z,11.59
2023-03-06T11:19:07.194Z,10.93
2023-03-06T11:24:20.070Z,10.51
2023-03-06T11:29:30.261Z,11.58
2023-03-06T11:34:59.589Z,13.15
2023-03-06T11:40:11.576Z,14.59
2023-03-06T11:45:34.872Z,15.20
2023-03-06T11:50:46.137Z,16.00
2023-03-06T11:56:05.366Z,16.67
2023-03-06T12:01:45.743Z,17.12
2023-03-06T12:07:07.810Z,17.29
2023-03-06T12:12:38.555Z,16.27
2023-03-06T12:18:08.166Z,16.43
2023-03-06T12:23:16.919Z,17.10
2023-03-06T12:28:28.195Z,17.02
2023-03-06T12:33:41.292Z,17.16
2023-03-06T12:38:53.071Z,17.48
2023-03-06T12:44:23.764Z,17.08
2023-03-06T12:49:32.383Z,18.07
2023-03-06T12:54:39.880Z,15.63
2023-03-06T12:59:48.567Z,14.97
2023-03-06T13:05:03.659Z,14.97
2023-03-06T13:10:09.197Z,16.52
2023-03-06T13:15:42.913Z,18.68
2023-03-06T13:20:46.235Z,19.86
2023-03-06T13:25:50.609Z,20.61
2023-03-06T13:30:53.586Z,20.48
2023-03-06T13:35:58.601Z,21.75
2023-03-06T13:41:23.750Z,22.69
2023-03-06T13:46:35.746Z,23.90
2023-03-06T13:51:41.260Z,24.44
2023-03-06T13:57:12.191Z,25.20
2023-03-06T14:02:30.249Z,26.49
2023-03-06T14:07:40.087Z,27.95
2023-03-06T14:13:00.308Z,29.03
2023-03-06T14:18:07.928Z,29.74
2023-03-06T14:23:23.471Z,30.58
2023-03-06T14:28:29.600Z,31.41
2023-03-06T14:33:55.111Z,32.33
2023-03-06T14:39:20.458Z,33.19
2023-03-06T14:44:26.657Z,33.40
2023-03-06T14:49:29.561Z,32.47
2023-03-06T14:54:37.017Z,31.80
2023-03-06T14:59:49.089Z,31.90
2023-03-06T15:05:20.670Z,32.75
2023-03-06T15:10:33.594Z,34.27
2023-03-06T15:15:36.415Z,35.52
2023-03-06T15:20:43.965Z,36.59
2023-03-06T15:26:13.835Z,37.76
2023-03-06T15:31:27.955Z,38.75
2023-03-06T15:36:34.180Z,39.75
2023-03-06T15:41:39.157Z,41.05
2023-03-06T15:46:42.458Z,41.79
2023-03-06T15:51:45.279Z,42.91
2023-03-06T15:56:49.824Z,43.37
2023-03-06T16:01:53.377Z,43.48
2023-03-06T16:06:56.364Z,44.07
2023-03-06T16:11:59.657Z,44.64
2023-03-06T16:17:02.692Z,44.93
2023-03-06T16:22:05.566Z,45.49
2023-03-06T16:27:16.592Z,46.16
2023-03-06T16:32:19.374Z,47.39
2023-03-06T16:37:22.258Z,50.94
2023-03-06T16:42:25.677Z,53.84
2023-03-06T16:47:28.390Z,57.79
2023-03-06T16:52:31.142Z,60.22
2023-03-06T16:57:35.830Z,62.95
2023-03-06T17:02:39.564Z,64.35
2023-03-06T17:07:42.638Z,65.85
2023-03-06T17:12:45.776Z,66.37
2023-03-06T17:17:48.988Z,67.21
2023-03-06T17:22:51.837Z,68.11
2023-03-06T17:27:54.542Z,69.14
2023-03-06T17:32:58.404Z,69.66
2023-03-06T17:38:01.212Z,69.64
2023-03-06T17:43:04.132Z,70.19
2023-03-06T17:48:06.915Z,70.87
2023-03-06T17:53:09.628Z,71.87
2023-03-06T17:58:12.618Z,72.07
2023-03-06T18:03:15.401Z,73.77
2023-03-06T18:08:18.245Z,74.51
2023-03-06T18:13:22.145Z,75.63
2023-03-06T18:18:25.764Z,76.16
2023-03-06T18:23:28.473Z,76.68
2023-03-06T18:28:31.141Z,77.23
2023-03-06T18:33:34.471Z,77.16
2023-03-06T18:38:39.763Z,78.10
2023-03-06T18:43:42.849Z,78.76
2023-03-06T18:48:45.620Z,78.72
2023-03-06T18:53:49.062Z,78.63
2023-03-06T18:58:52.401Z,78.96
2023-03-06T19:03:55.199Z,79.07
2023-03-06T19:09:02.250Z,80.15
2023-03-06T19:14:05.220Z,79.29
2023-03-06T19:19:08.299Z,78.79
2023-03-06T19:24:14.174Z,78.93
2023-03-06T19:29:16.874Z,78.76
2023-03-06T19:34:19.680Z,78.77
2023-03-06T19:39:22.620Z,79.74
2023-03-06T19:44:25.352Z,79.91
2023-03-06T19:49:28.007Z,80.32
2023-03-06T19:54:32.492Z,81.01
2023-03-06T19:59:35.944Z,81.57
2023-03-06T20:04:39.100Z,83.21
2023-03-06T20:09:41.875Z,83.37
2023-03-06T20:14:46.390Z,83.45
2023-03-06T20:19:49.189Z,83.87
2023-03-06T20:24:52.499Z,84.41
2023-03-06T20:29:55.300Z,85.05
2023-03-06T20:34:57.997Z,86.00
2023-03-06T20:40:00.797Z,85.77
2023-03-06T20:45:03.915Z,86.19
2023-03-06T20:50:07.614Z,85.84
2023-03-06T20:55:10.857Z,87.49
2023-03-06T21:00:14.530Z,87.69
2023-03-06T21:05:17.210Z,88.52
2023-03-06T21:10:19.891Z,89.37
2023-03-06T21:15:27.082Z,89.42
2023-03-06T21:20:30.481Z,89.27
2023-03-06T21:25:33.892Z,89.02
2023-03-06T21:30:36.620Z,89.11
2023-03-06T21:35:41.436Z,89.48
2023-03-06T21:40:45.522Z,89.68
2023-03-06T21:45:52.738Z,89.73
2023-03-06T21:51:08.510Z,89.99
2023-03-06T21:56:12.739Z,90.86
2023-03-06T22:01:22.316Z,91.09
2023-03-06T22:06:27.362Z,91.36
2023-03-06T22:11:37.218Z,91.53
2023-03-06T22:16:39.917Z,91.67
2023-03-06T22:21:42.673Z,91.60
2023-03-06T22:26:45.623Z,91.71
2023-03-06T22:31:48.338Z,91.65
2023-03-06T22:36:51.256Z,91.75
2023-03-06T22:41:56.882Z,92.05
2023-03-06T22:46:59.644Z,92.02
2023-03-06T22:52:02.384Z,92.10
2023-03-06T22:57:05.183Z,92.37
2023-03-06T23:02:08.226Z,92.93
2023-03-06T23:07:10.909Z,92.98
2023-03-06T23:12:13.699Z,93.32
2023-03-06T23:17:16.644Z,93.72
2023-03-06T23:22:19.814Z,93.91
2023-03-06T23:27:22.738Z,94.09
2023-03-06T23:32:25.644Z,94.24
2023-03-06T23:37:28.424Z,94.43
2023-03-06T23:42:31.150Z,94.22
2023-03-06T23:47:34.538Z,94.51
2023-03-06T23:52:38.185Z,94.86
2023-03-06T23:57:40.862Z,95.30
